createdAt,value
2018-11-06T00:00:02.906Z,8.35
2018-11-06T00:02:31.451Z,8.15
2018-11-06T00:05:05.118Z,8.17
2018-11-06T00:10:26.523Z,7.88
2018-11-06T00:12:55.042Z,7.92
2018-11-06T00:15:23.538Z,7.92
2018-11-06T00:17:52.047Z,8.04
2018-11-06T00:20:20.545Z,7.94
2018-11-06T00:22:49.082Z,7.90
2018-11-06T00:25:18.180Z,7.85
2018-11-06T00:27:46.700Z,7.79
2018-11-06T00:30:15.641Z,7.80
2018-11-06T00:32:44.418Z,7.86
2018-11-06T00:35:14.349Z,7.83
2018-11-06T00:37:43.625Z,7.81
2018-11-06T00:40:12.226Z,7.79
2018-11-06T00:42:40.747Z,7.83
2018-11-06T00:45:11.854Z,7.83
2018-11-06T00:47:40.955Z,7.76
2018-11-06T00:50:10.715Z,7.71
2018-11-06T00:52:40.185Z,7.67
2018-11-06T00:55:09.479Z,7.68
2018-11-06T00:57:39.414Z,7.74
2018-11-06T01:00:10.667Z,7.70
2018-11-06T01:02:39.187Z,7.63
2018-11-06T01:05:08.854Z,7.65
2018-11-06T01:07:37.353Z,7.61
2018-11-06T01:10:06.823Z,7.58
2018-11-06T01:12:36.288Z,7.59
2018-11-06T01:15:05.283Z,7.57
2018-11-06T01:17:33.846Z,7.56
2018-11-06T01:20:02.556Z,7.60
2018-11-06T01:22:31.726Z,7.60
2018-11-06T01:25:01.399Z,7.53
2018-11-06T01:27:29.949Z,7.57
2018-11-06T01:29:58.473Z,7.45
2018-11-06T01:32:26.990Z,7.52
2018-11-06T01:34:55.854Z,7.50
2018-11-06T01:37:24.384Z,7.43
2018-11-06T01:39:52.890Z,7.49
2018-11-06T01:42:21.758Z,7.50
2018-11-06T01:44:50.276Z,7.41
2018-11-06T01:47:18.779Z,7.41
2018-11-06T01:49:47.281Z,7.42
2018-11-06T01:52:15.781Z,7.43
2018-11-06T01:54:44.311Z,7.42
2018-11-06T01:57:12.830Z,7.46
2018-11-06T01:59:41.334Z,7.44
2018-11-06T02:02:09.849Z,7.38
2018-11-06T02:04:38.362Z,7.40
2018-11-06T02:07:06.983Z,7.37
2018-11-06T02:09:35.470Z,7.29
2018-11-06T02:12:04.062Z,7.22
2018-11-06T02:14:32.571Z,7.21
2018-11-06T02:17:01.089Z,7.23
2018-11-06T02:19:29.589Z,7.19
2018-11-06T02:21:58.116Z,7.18
2018-11-06T02:24:26.671Z,7.15
2018-11-06T02:26:55.170Z,7.14
2018-11-06T02:29:23.662Z,7.05
2018-11-06T02:31:52.209Z,7.06
2018-11-06T02:34:20.705Z,7.08
2018-11-06T02:36:49.213Z,7.04
2018-11-06T02:39:17.715Z,6.93
2018-11-06T02:41:46.228Z,7.02
2018-11-06T02:44:14.714Z,6.98
2018-11-06T02:46:43.198Z,6.94
2018-11-06T02:49:11.696Z,6.88
2018-11-06T02:51:40.205Z,6.95
2018-11-06T02:54:08.722Z,6.87
2018-11-06T02:56:37.250Z,6.91
2018-11-06T02:59:05.834Z,6.84
2018-11-06T03:01:34.784Z,6.81
2018-11-06T03:04:06.353Z,6.91
2018-11-06T03:06:35.162Z,6.86
2018-11-06T03:09:05.767Z,6.95
2018-11-06T03:11:34.283Z,6.89
2018-11-06T03:14:03.819Z,6.87
2018-11-06T03:16:32.325Z,6.88
2018-11-06T03:19:01.921Z,6.86
2018-11-06T03:21:30.444Z,6.87
2018-11-06T03:23:59.060Z,6.87
2018-11-06T03:26:27.582Z,6.91
2018-11-06T03:28:56.115Z,6.95
2018-11-06T03:31:24.598Z,6.97
2018-11-06T03:33:53.131Z,7.01
2018-11-06T03:36:21.609Z,7.02
2018-11-06T03:38:50.115Z,7.02
2018-11-06T03:41:18.611Z,7.03
2018-11-06T03:43:47.136Z,7.03
2018-11-06T03:46:15.638Z,7.02
2018-11-06T03:48:44.261Z,7.00
2018-11-06T03:51:12.766Z,7.02
2018-11-06T03:53:41.264Z,6.97
2018-11-06T03:56:10.114Z,6.97
2018-11-06T03:58:38.978Z,6.82
2018-11-06T04:01:08.062Z,6.70
2018-11-06T04:03:36.559Z,6.78
2018-11-06T04:06:05.214Z,6.74
2018-11-06T04:08:33.735Z,6.66
2018-11-06T04:11:02.299Z,6.59
2018-11-06T04:13:30.849Z,6.54
2018-11-06T04:15:59.368Z,6.47
2018-11-06T04:18:27.878Z,6.51
2018-11-06T04:20:56.390Z,6.51
2018-11-06T04:23:25.114Z,6.52
2018-11-06T04:25:53.610Z,6.54
2018-11-06T04:28:22.115Z,6.48
2018-11-06T04:30:50.615Z,6.44
2018-11-06T04:33:19.098Z,6.43
2018-11-06T04:35:47.622Z,6.41
2018-11-06T04:38:16.103Z,6.33
2018-11-06T04:40:44.622Z,6.34
2018-11-06T04:43:13.125Z,6.37
2018-11-06T04:45:41.630Z,6.40
2018-11-06T04:48:10.127Z,6.52
2018-11-06T04:50:38.646Z,6.49
2018-11-06T04:53:07.142Z,6.47
2018-11-06T04:55:35.656Z,6.48
2018-11-06T04:58:04.258Z,6.48
2018-11-06T05:00:32.767Z,6.50
2018-11-06T05:03:01.697Z,6.50
2018-11-06T05:05:30.213Z,6.59
2018-11-06T05:07:58.714Z,6.56
2018-11-06T05:10:27.211Z,6.62
2018-11-06T05:12:55.847Z,6.66
2018-11-06T05:15:24.370Z,6.62
2018-11-06T05:17:52.854Z,6.62
2018-11-06T05:20:21.338Z,6.69
2018-11-06T05:22:49.856Z,6.63
2018-11-06T05:25:18.947Z,6.63
2018-11-06T05:27:47.447Z,6.58
2018-11-06T05:30:16.003Z,6.59
2018-11-06T05:32:44.984Z,6.59
2018-11-06T05:35:13.548Z,6.64
2018-11-06T05:37:42.173Z,6.68
2018-11-06T05:40:21.898Z,6.69
2018-11-06T05:45:42.761Z,6.72
2018-11-06T05:48:11.150Z,6.68
2018-11-06T05:50:39.667Z,6.67
2018-11-06T05:53:08.226Z,6.74
2018-11-06T05:55:36.746Z,6.62
2018-11-06T05:58:05.516Z,6.62
2018-11-06T06:00:34.073Z,6.63
2018-11-06T06:03:02.586Z,6.74
2018-11-06T06:05:31.113Z,6.64
2018-11-06T06:07:59.597Z,6.57
2018-11-06T06:10:28.469Z,6.53
2018-11-06T06:12:56.976Z,6.37
2018-11-06T06:15:25.483Z,6.23
2018-11-06T06:17:54.234Z,6.24
2018-11-06T06:20:22.727Z,6.30
2018-11-06T06:25:43.918Z,6.41
2018-11-06T06:28:12.429Z,6.44
2018-11-06T06:30:40.914Z,6.51
2018-11-06T06:33:09.443Z,6.49
2018-11-06T06:35:37.958Z,6.49
2018-11-06T06:38:06.693Z,6.51
2018-11-06T06:40:35.214Z,6.56
2018-11-06T06:43:03.806Z,6.76
2018-11-06T06:45:32.406Z,6.72
2018-11-06T06:48:00.965Z,6.77
2018-11-06T06:50:29.526Z,6.82
2018-11-06T06:52:58.154Z,6.90
2018-11-06T06:55:26.665Z,7.12
2018-11-06T06:57:55.163Z,7.11
2018-11-06T07:00:23.719Z,7.05
2018-11-06T07:02:52.234Z,7.09
2018-11-06T07:05:22.206Z,7.11
2018-11-06T07:07:50.722Z,7.15
2018-11-06T07:10:20.446Z,7.20
2018-11-06T07:12:49.564Z,7.29
2018-11-06T07:15:19.347Z,7.37
2018-11-06T07:17:48.823Z,7.61
2018-11-06T07:23:09.806Z,7.59
2018-11-06T07:25:38.308Z,7.51
2018-11-06T07:28:06.807Z,7.50
2018-11-06T07:30:35.487Z,7.72
2018-11-06T07:33:04.182Z,7.85
2018-11-06T07:35:32.834Z,7.99
2018-11-06T07:38:01.203Z,8.17
2018-11-06T07:40:29.746Z,8.38
2018-11-06T07:42:58.229Z,8.32
2018-11-06T07:45:26.758Z,8.32
2018-11-06T07:47:55.306Z,8.58
2018-11-06T07:50:23.874Z,8.98
2018-11-06T07:52:52.562Z,8.95
2018-11-06T07:55:21.250Z,9.23
2018-11-06T07:57:49.770Z,9.19
2018-11-06T08:00:22.047Z,9.37
2018-11-06T08:02:51.028Z,9.45
2018-11-06T08:05:19.738Z,9.55
2018-11-06T08:07:49.072Z,9.86
2018-11-06T08:10:17.561Z,9.89
2018-11-06T08:12:48.428Z,10.27
2018-11-06T08:15:17.666Z,10.37
2018-11-06T08:17:46.585Z,10.42
2018-11-06T08:20:15.382Z,10.59
2018-11-06T08:22:43.920Z,10.73
2018-11-06T08:25:13.780Z,10.90
2018-11-06T08:27:43.087Z,11.09
2018-11-06T08:30:12.244Z,11.34
2018-11-06T08:32:41.060Z,11.57
2018-11-06T08:35:12.130Z,11.94
2018-11-06T08:37:41.019Z,12.36
2018-11-06T08:40:10.433Z,12.58
2018-11-06T08:42:38.933Z,12.91
2018-11-06T08:45:09.167Z,13.30
2018-11-06T08:47:37.699Z,13.81
2018-11-06T08:50:07.451Z,14.33
2018-11-06T08:52:35.967Z,14.64
2018-11-06T08:55:05.543Z,15.14
2018-11-06T08:57:34.078Z,15.24
2018-11-06T09:00:02.723Z,15.57
2018-11-06T09:02:31.237Z,15.83
2018-11-06T09:04:59.734Z,15.70
2018-11-06T09:10:21.423Z,16.07
2018-11-06T09:13:01.016Z,16.33
2018-11-06T09:15:29.649Z,16.47
2018-11-06T09:18:04.701Z,16.49
2018-11-06T09:20:33.207Z,16.88
2018-11-06T09:23:01.951Z,17.21
2018-11-06T09:25:30.478Z,17.38
2018-11-06T09:27:58.993Z,17.57
2018-11-06T09:30:27.487Z,17.98
2018-11-06T09:32:55.991Z,18.16
2018-11-06T09:35:24.483Z,18.28
2018-11-06T09:37:52.993Z,18.44
2018-11-06T09:40:21.516Z,18.27
2018-11-06T09:42:50.059Z,18.42
2018-11-06T09:45:18.719Z,18.14
2018-11-06T09:47:47.215Z,18.22
2018-11-06T09:50:17.090Z,18.51
2018-11-06T09:52:46.375Z,18.75
2018-11-06T09:55:15.580Z,18.49
2018-11-06T09:57:44.454Z,19.35
2018-11-06T10:00:15.255Z,19.17
2018-11-06T10:02:43.779Z,19.15
2018-11-06T10:05:13.110Z,19.47
2018-11-06T10:07:41.678Z,19.79
2018-11-06T10:10:12.360Z,19.64
2018-11-06T10:12:41.390Z,19.76
2018-11-06T10:15:12.230Z,20.60
2018-11-06T10:17:41.906Z,20.31
2018-11-06T10:20:11.478Z,20.13
2018-11-06T10:22:40.066Z,20.49
2018-11-06T10:25:09.082Z,20.57
2018-11-06T10:27:38.380Z,19.99
2018-11-06T10:30:09.130Z,20.20
2018-11-06T10:32:37.710Z,20.53
2018-11-06T10:35:06.657Z,19.88
2018-11-06T10:37:35.179Z,20.61
2018-11-06T10:40:04.096Z,21.08
2018-11-06T10:42:32.599Z,20.73
2018-11-06T10:45:01.120Z,21.26
2018-11-06T10:47:29.655Z,21.53
2018-11-06T10:49:58.178Z,21.69
2018-11-06T10:52:26.719Z,21.01
2018-11-06T10:54:55.262Z,21.19
2018-11-06T10:57:23.807Z,21.82
2018-11-06T10:59:52.327Z,21.67
2018-11-06T11:02:27.860Z,21.72
2018-11-06T11:04:56.607Z,21.43
2018-11-06T11:07:25.212Z,21.84
2018-11-06T11:09:53.786Z,21.90
2018-11-06T11:12:22.335Z,22.01
2018-11-06T11:14:50.883Z,22.05
2018-11-06T11:17:19.633Z,21.58
2018-11-06T11:19:48.244Z,21.80
2018-11-06T11:22:16.762Z,21.88
2018-11-06T11:24:45.303Z,21.88
2018-11-06T11:27:13.827Z,22.84
2018-11-06T11:29:42.327Z,23.14
2018-11-06T11:32:10.875Z,22.81
2018-11-06T11:34:39.400Z,22.64
2018-11-06T11:37:08.480Z,21.91
2018-11-06T11:39:54.991Z,22.30
2018-11-06T11:42:23.515Z,22.15
2018-11-06T11:44:52.038Z,22.86
2018-11-06T11:47:20.630Z,22.11
2018-11-06T11:49:49.155Z,21.51
2018-11-06T11:52:17.784Z,21.35
2018-11-06T11:54:46.320Z,21.55
2018-11-06T11:57:14.834Z,21.21
2018-11-06T11:59:43.334Z,21.12
2018-11-06T12:02:11.858Z,21.18
2018-11-06T12:04:40.342Z,21.29
2018-11-06T12:07:10.571Z,21.02
2018-11-06T12:09:39.102Z,21.39
2018-11-06T12:12:07.634Z,20.94
2018-11-06T12:14:36.146Z,21.18
2018-11-06T12:17:04.771Z,21.26
2018-11-06T12:22:26.194Z,21.23
2018-11-06T12:24:55.112Z,21.20
2018-11-06T12:27:23.542Z,21.12
2018-11-06T12:29:52.072Z,21.12
2018-11-06T12:32:20.608Z,21.20
2018-11-06T12:34:49.144Z,21.26
2018-11-06T12:37:17.636Z,21.21
2018-11-06T12:39:46.187Z,21.33
2018-11-06T12:42:14.696Z,21.24
2018-11-06T12:44:43.555Z,21.30
2018-11-06T12:47:12.085Z,21.16
2018-11-06T12:49:40.591Z,21.31
2018-11-06T12:52:09.065Z,21.30
2018-11-06T12:54:37.597Z,21.30
2018-11-06T12:57:06.438Z,21.17
2018-11-06T12:59:34.959Z,21.25
2018-11-06T13:02:03.667Z,21.43
2018-11-06T13:04:32.180Z,21.39
2018-11-06T13:07:00.707Z,21.59
2018-11-06T13:09:29.222Z,21.52
2018-11-06T13:11:58.118Z,21.24
2018-11-06T13:14:26.607Z,21.44
2018-11-06T13:16:55.125Z,21.48
2018-11-06T13:19:23.633Z,21.07
2018-11-06T13:21:52.133Z,21.18
2018-11-06T13:24:20.655Z,21.25
2018-11-06T13:26:49.154Z,21.25
2018-11-06T13:29:17.656Z,21.38
2018-11-06T13:31:46.207Z,21.38
2018-11-06T13:34:14.689Z,21.32
2018-11-06T13:36:43.294Z,21.29
2018-11-06T13:39:12.783Z,21.25
2018-11-06T13:41:41.899Z,21.15
2018-11-06T13:44:10.669Z,21.16
2018-11-06T13:46:38.986Z,21.27
2018-11-06T13:49:07.534Z,21.14
2018-11-06T13:51:36.117Z,21.20
2018-11-06T13:54:06.871Z,21.37
2018-11-06T13:56:35.392Z,21.42
2018-11-06T13:59:06.380Z,21.26
2018-11-06T14:01:34.903Z,21.32
2018-11-06T14:04:04.633Z,21.38
2018-11-06T14:06:33.146Z,21.35
2018-11-06T14:09:04.795Z,21.32
2018-11-06T14:11:33.314Z,21.33
2018-11-06T14:14:02.941Z,21.20
2018-11-06T14:16:31.677Z,21.29
2018-11-06T14:19:00.539Z,21.19
2018-11-06T14:21:29.047Z,21.07
2018-11-06T14:23:57.550Z,21.21
2018-11-06T14:26:26.059Z,21.03
2018-11-06T14:28:54.571Z,21.06
2018-11-06T14:31:23.094Z,20.98
2018-11-06T14:33:51.592Z,20.99
2018-11-06T14:36:20.091Z,20.96
2018-11-06T14:38:48.585Z,20.93
2018-11-06T14:41:17.106Z,20.80
2018-11-06T14:43:45.606Z,20.63
2018-11-06T14:46:14.103Z,20.56
2018-11-06T14:48:42.816Z,20.39
2018-11-06T14:51:11.363Z,20.27
2018-11-06T14:53:39.888Z,19.99
2018-11-06T14:56:08.465Z,19.84
2018-11-06T14:58:37.055Z,19.56
2018-11-06T15:01:05.602Z,19.47
2018-11-06T15:06:27.272Z,19.28
2018-11-06T15:08:55.808Z,19.16
2018-11-06T15:11:24.353Z,19.16
2018-11-06T15:13:52.865Z,19.06
2018-11-06T15:16:21.398Z,18.98
2018-11-06T15:18:49.939Z,19.10
2018-11-06T15:21:18.447Z,18.68
2018-11-06T15:23:46.986Z,18.55
2018-11-06T15:26:15.532Z,18.48
2018-11-06T15:28:44.046Z,18.36
2018-11-06T15:31:12.578Z,18.31
2018-11-06T15:33:41.127Z,18.27
2018-11-06T15:36:09.614Z,18.18
2018-11-06T15:38:38.448Z,18.22
2018-11-06T15:41:07.034Z,18.19
2018-11-06T15:43:35.495Z,18.11
2018-11-06T15:46:04.182Z,18.16
2018-11-06T15:48:32.808Z,18.01
2018-11-06T15:51:01.236Z,18.02
2018-11-06T15:53:29.804Z,17.66
2018-11-06T15:55:58.612Z,17.67
2018-11-06T15:58:27.150Z,17.49
2018-11-06T16:00:55.683Z,17.38
2018-11-06T16:03:24.208Z,17.23
2018-11-06T16:05:52.755Z,17.29
2018-11-06T16:08:21.426Z,17.09
2018-11-06T16:10:49.836Z,17.01
2018-11-06T16:13:18.367Z,16.87
2018-11-06T16:18:39.515Z,16.69
2018-11-06T16:21:08.115Z,16.68
2018-11-06T16:23:36.626Z,16.71
2018-11-06T16:26:05.238Z,16.56
2018-11-06T16:28:33.755Z,16.47
2018-11-06T16:31:02.380Z,16.37
2018-11-06T16:33:30.915Z,16.39
2018-11-06T16:35:59.416Z,16.10
2018-11-06T16:38:27.918Z,16.11
2018-11-06T16:40:56.454Z,15.93
2018-11-06T16:43:24.966Z,15.96
2018-11-06T16:45:53.517Z,15.82
2018-11-06T16:48:22.059Z,15.93
2018-11-06T16:50:50.563Z,15.81
2018-11-06T16:53:19.079Z,15.65
2018-11-06T16:55:47.587Z,15.71
2018-11-06T16:58:16.372Z,15.76
2018-11-06T17:00:45.016Z,15.63
2018-11-06T17:03:13.446Z,15.63
2018-11-06T17:05:41.953Z,15.53
2018-11-06T17:08:10.480Z,15.56
2018-11-06T17:10:38.991Z,15.47
2018-11-06T17:13:07.534Z,15.53
2018-11-06T17:15:36.054Z,15.33
2018-11-06T17:18:04.588Z,15.20
2018-11-06T17:20:33.091Z,15.17
2018-11-06T17:23:01.599Z,15.23
2018-11-06T17:25:30.137Z,15.02
2018-11-06T17:27:58.612Z,15.13
2018-11-06T17:30:27.098Z,15.07
2018-11-06T17:32:55.648Z,14.97
2018-11-06T17:35:24.179Z,14.92
2018-11-06T17:37:52.695Z,14.76
2018-11-06T17:40:21.747Z,14.83
2018-11-06T17:42:56.786Z,14.77
2018-11-06T17:45:25.421Z,14.67
2018-11-06T17:47:53.909Z,14.68
2018-11-06T17:50:22.647Z,14.67
2018-11-06T17:52:51.163Z,14.56
2018-11-06T17:55:20.764Z,14.52
2018-11-06T17:57:49.058Z,14.53
2018-11-06T18:00:19.886Z,14.49
2018-11-06T18:02:48.574Z,14.53
2018-11-06T18:05:18.263Z,14.49
2018-11-06T18:07:46.759Z,14.48
2018-11-06T18:10:16.686Z,14.36
2018-11-06T18:12:45.508Z,14.20
2018-11-06T18:15:14.018Z,14.28
2018-11-06T18:17:42.860Z,14.13
2018-11-06T18:20:12.790Z,14.25
2018-11-06T18:22:42.271Z,14.30
2018-11-06T18:25:11.852Z,14.24
2018-11-06T18:27:40.455Z,14.15
2018-11-06T18:30:13.020Z,14.15
2018-11-06T18:32:41.656Z,14.02
2018-11-06T18:35:12.004Z,13.95
2018-11-06T18:37:40.595Z,13.97
2018-11-06T18:40:11.699Z,13.89
2018-11-06T18:42:40.317Z,13.81
2018-11-06T18:45:10.558Z,13.59
2018-11-06T18:47:39.097Z,13.72
2018-11-06T18:50:09.499Z,13.73
2018-11-06T18:52:38.249Z,13.77
2018-11-06T18:55:07.085Z,13.68
2018-11-06T18:57:35.950Z,13.66
2018-11-06T19:00:04.991Z,13.71
2018-11-06T19:02:33.827Z,13.64
2018-11-06T19:05:02.799Z,13.46
2018-11-06T19:07:31.283Z,13.42
2018-11-06T19:09:59.790Z,13.44
2018-11-06T19:12:28.454Z,13.34
2018-11-06T19:14:56.950Z,13.34
2018-11-06T19:17:25.460Z,13.35
2018-11-06T19:19:54.033Z,13.21
2018-11-06T19:22:22.539Z,13.17
2018-11-06T19:24:51.085Z,13.22
2018-11-06T19:27:20.131Z,13.22
2018-11-06T19:29:48.618Z,13.16
2018-11-06T19:32:17.104Z,13.23
2018-11-06T19:34:45.772Z,13.24
2018-11-06T19:37:14.273Z,13.21
2018-11-06T19:39:42.772Z,13.16
2018-11-06T19:42:11.274Z,13.09
2018-11-06T19:44:39.781Z,13.09
2018-11-06T19:47:08.333Z,13.12
2018-11-06T19:49:36.920Z,13.10
2018-11-06T19:52:05.543Z,12.99
2018-11-06T19:54:34.051Z,12.90
2018-11-06T19:57:02.758Z,12.86
2018-11-06T19:59:31.783Z,12.68
2018-11-06T20:02:01.039Z,12.71
2018-11-06T20:04:30.056Z,12.70
2018-11-06T20:06:58.727Z,12.61
2018-11-06T20:09:27.900Z,12.67
2018-11-06T20:14:49.096Z,12.68
2018-11-06T20:17:17.928Z,12.66
2018-11-06T20:19:46.678Z,12.63
2018-11-06T20:22:15.662Z,12.62
2018-11-06T20:24:44.320Z,12.62
2018-11-06T20:27:13.013Z,12.58
2018-11-06T20:29:41.681Z,12.56
2018-11-06T20:32:26.766Z,12.56
2018-11-06T20:34:55.635Z,12.46
2018-11-06T20:37:24.198Z,12.42
2018-11-06T20:39:52.655Z,12.34
2018-11-06T20:42:21.188Z,12.37
2018-11-06T20:44:49.669Z,12.33
2018-11-06T20:47:18.159Z,12.26
2018-11-06T20:49:46.874Z,12.14
2018-11-06T20:52:15.499Z,12.18
2018-11-06T20:54:43.991Z,12.16
2018-11-06T20:57:12.522Z,12.13
2018-11-06T20:59:41.022Z,12.01
2018-11-06T21:02:10.442Z,11.91
2018-11-06T21:04:38.950Z,11.82
2018-11-06T21:07:07.491Z,11.73
2018-11-06T21:09:36.034Z,11.65
2018-11-06T21:12:04.554Z,11.70
2018-11-06T21:14:33.054Z,11.70
2018-11-06T21:17:01.652Z,11.41
2018-11-06T21:19:30.203Z,11.23
2018-11-06T21:21:58.739Z,11.40
2018-11-06T21:24:27.244Z,11.40
2018-11-06T21:26:55.903Z,11.45
2018-11-06T21:29:24.301Z,11.30
2018-11-06T21:31:52.810Z,11.33
2018-11-06T21:34:21.343Z,11.21
2018-11-06T21:36:49.822Z,11.23
2018-11-06T21:39:18.390Z,11.26
2018-11-06T21:41:46.919Z,11.27
2018-11-06T21:44:15.422Z,11.26
2018-11-06T21:46:43.943Z,11.11
2018-11-06T21:49:12.539Z,11.15
2018-11-06T21:51:41.064Z,11.16
2018-11-06T21:54:09.586Z,11.17
2018-11-06T21:56:38.083Z,11.14
2018-11-06T21:59:06.604Z,11.06
2018-11-06T22:01:35.130Z,10.88
2018-11-06T22:04:05.411Z,10.94
2018-11-06T22:06:33.915Z,10.74
2018-11-06T22:09:04.170Z,10.75
2018-11-06T22:11:32.713Z,10.73
2018-11-06T22:14:03.213Z,10.80
2018-11-06T22:16:32.007Z,10.79
2018-11-06T22:19:00.578Z,10.75
2018-11-06T22:21:29.077Z,10.60
2018-11-06T22:23:57.597Z,10.44
2018-11-06T22:26:26.087Z,10.42
2018-11-06T22:28:54.658Z,10.38
2018-11-06T22:31:23.180Z,10.33
2018-11-06T22:33:51.726Z,10.35
2018-11-06T22:36:20.228Z,10.30
2018-11-06T22:38:49.286Z,10.21
2018-11-06T22:41:17.855Z,10.26
2018-11-06T22:43:46.472Z,10.32
2018-11-06T22:46:14.994Z,10.41
2018-11-06T22:48:43.496Z,10.31
2018-11-06T22:51:12.007Z,10.38
2018-11-06T22:53:40.541Z,10.34
2018-11-06T22:56:09.061Z,10.24
2018-11-06T22:58:37.774Z,10.14
2018-11-06T23:01:11.624Z,10.13
2018-11-06T23:03:40.126Z,10.10
2018-11-06T23:06:08.810Z,10.09
2018-11-06T23:08:37.142Z,10.09
2018-11-06T23:11:06.166Z,10.06
2018-11-06T23:13:34.682Z,9.99
2018-11-06T23:16:03.237Z,10.02
2018-11-06T23:18:31.747Z,9.93
2018-11-06T23:21:00.260Z,9.87
2018-11-06T23:23:28.963Z,9.85
2018-11-06T23:25:57.482Z,9.91
2018-11-06T23:28:26.434Z,9.87
2018-11-06T23:30:55.037Z,9.95
2018-11-06T23:33:23.564Z,10.02
2018-11-06T23:35:52.427Z,9.80
2018-11-06T23:38:20.846Z,9.72
2018-11-06T23:40:49.383Z,9.73
2018-11-06T23:43:17.882Z,9.58
2018-11-06T23:45:46.391Z,9.64
2018-11-06T23:51:07.411Z,9.69
2018-11-06T23:53:35.923Z,9.62
2018-11-06T23:56:04.559Z,9.60
2018-11-06T23:58:33.075Z,9.63
